C6023 KFMH-KFMH
Flight info
| Callsign | C6023 |
|---|---|
| Flight time | N/A |
| Altitude | 1000 |
| Route | DCT |
| Aircraft | H60/M-DFGHIRTUVY/S |
Departure
| Time | 2026-05-06 13:11 |
|---|---|
| Airport | Cape Cod Coast Guard Air Station (KFMH) |
Arrival
| Time | N/A |
|---|---|
| Airport | Cape Cod Coast Guard Air Station (KFMH) |
| Time | Latitude | Longitude | Altitude | Speed | Heading |
|---|---|---|---|---|---|
| 2026-05-06 13:03 | 41.66475 | -70.52199 | 125 ft | 0 kts | 128° |
| 2026-05-06 13:04 | 41.66518 | -70.52077 | 127 ft | 0 kts | 260° |
| 2026-05-06 13:09 | 41.66518 | -70.52079 | 129 ft | 0 kts | 256° |
| 2026-05-06 13:09 | 41.66525 | -70.52090 | 143 ft | 3 kts | 341° |
| 2026-05-06 13:10 | 41.66576 | -70.52084 | 192 ft | 23 kts | 353° |
| 2026-05-06 13:10 | 41.66913 | -70.52025 | 350 ft | 76 kts | 0° |
| 2026-05-06 13:10 | 41.67530 | -70.51941 | 649 ft | 102 kts | 5° |
| 2026-05-06 13:10 | 41.68306 | -70.51870 | 674 ft | 116 kts | 3° |
| 2026-05-06 13:11 | 41.69109 | -70.51795 | 759 ft | 114 kts | 3° |
| 2026-05-06 13:11 | 41.69917 | -70.51712 | 831 ft | 118 kts | 3° |
| 2026-05-06 13:11 | 41.70731 | -70.51621 | 890 ft | 118 kts | 3° |
| 2026-05-06 13:11 | 41.71556 | -70.51531 | 928 ft | 120 kts | 3° |
| 2026-05-06 13:12 | 41.72405 | -70.51428 | 983 ft | 127 kts | 3° |
| 2026-05-06 13:12 | 41.73303 | -70.51325 | 982 ft | 131 kts | 3° |
| 2026-05-06 13:12 | 41.74196 | -70.51214 | 1003 ft | 122 kts | 3° |
| 2026-05-06 13:12 | 41.74990 | -70.51123 | 1055 ft | 107 kts | 3° |
| 2026-05-06 13:13 | 41.75725 | -70.51037 | 1154 ft | 109 kts | 3° |
| 2026-05-06 13:13 | 41.76509 | -70.50937 | 1169 ft | 119 kts | 3° |
| 2026-05-06 13:13 | 41.77367 | -70.50829 | 1124 ft | 126 kts | 3° |
| 2026-05-06 13:13 | 41.78246 | -70.50721 | 1109 ft | 128 kts | 3° |
| 2026-05-06 13:14 | 41.79125 | -70.50616 | 1134 ft | 127 kts | 3° |
| 2026-05-06 13:14 | 41.80025 | -70.50495 | 1101 ft | 130 kts | 3° |
| 2026-05-06 13:14 | 41.80909 | -70.50388 | 1168 ft | 126 kts | 3° |
| 2026-05-06 13:14 | 41.81776 | -70.50296 | 1140 ft | 124 kts | 2° |
| 2026-05-06 13:15 | 41.82617 | -70.50197 | 1207 ft | 127 kts | 2° |
| 2026-05-06 13:15 | 41.83531 | -70.50082 | 1173 ft | 136 kts | 2° |
| 2026-05-06 13:15 | 41.84483 | -70.49972 | 1132 ft | 137 kts | 2° |
| 2026-05-06 13:15 | 41.85434 | -70.49864 | 1106 ft | 137 kts | 2° |
| 2026-05-06 13:16 | 41.86382 | -70.49749 | 1100 ft | 136 kts | 2° |
| 2026-05-06 13:16 | 41.87321 | -70.49686 | 1106 ft | 134 kts | 0° |
| 2026-05-06 13:16 | 41.88246 | -70.49610 | 1147 ft | 134 kts | 0° |
| 2026-05-06 13:16 | 41.89204 | -70.49535 | 1091 ft | 139 kts | 0° |
| 2026-05-06 13:17 | 41.90178 | -70.49453 | 1009 ft | 141 kts | 0° |
| 2026-05-06 13:17 | 41.91168 | -70.49370 | 896 ft | 144 kts | 0° |
| 2026-05-06 13:17 | 41.92128 | -70.49276 | 764 ft | 129 kts | 0° |
| 2026-05-06 13:17 | 41.92970 | -70.49213 | 854 ft | 120 kts | 0° |
| 2026-05-06 13:18 | 41.93858 | -70.49152 | 826 ft | 135 kts | 0° |
| 2026-05-06 13:18 | 41.94748 | -70.49086 | 789 ft | 120 kts | 0° |
| 2026-05-06 13:18 | 41.95545 | -70.49023 | 848 ft | 114 kts | 0° |
| 2026-05-06 13:18 | 41.96331 | -70.48964 | 884 ft | 113 kts | 0° |
| 2026-05-06 13:19 | 41.97133 | -70.48900 | 908 ft | 119 kts | 0° |
| 2026-05-06 13:19 | 41.97956 | -70.48839 | 915 ft | 116 kts | 0° |
| 2026-05-06 13:19 | 41.98771 | -70.48777 | 927 ft | 119 kts | 0° |
| 2026-05-06 13:19 | 41.99609 | -70.48713 | 889 ft | 121 kts | 0° |
| 2026-05-06 13:20 | 42.00442 | -70.48642 | 849 ft | 119 kts | 0° |
| 2026-05-06 13:20 | 42.01245 | -70.48585 | 877 ft | 113 kts | 0° |
| 2026-05-06 13:20 | 42.02026 | -70.48542 | 946 ft | 112 kts | 0° |
| 2026-05-06 13:20 | 42.02801 | -70.48500 | 989 ft | 114 kts | 0° |
| 2026-05-06 13:21 | 42.03599 | -70.48448 | 1016 ft | 115 kts | 0° |
| 2026-05-06 13:21 | 42.04402 | -70.48399 | 1035 ft | 115 kts | 0° |
| 2026-05-06 13:21 | 42.05205 | -70.48353 | 1019 ft | 116 kts | 0° |
| 2026-05-06 13:21 | 42.06016 | -70.48307 | 1021 ft | 116 kts | 0° |
| 2026-05-06 13:22 | 42.06816 | -70.48279 | 1059 ft | 114 kts | 359° |
| 2026-05-06 13:22 | 42.07619 | -70.48254 | 1082 ft | 118 kts | 358° |
| 2026-05-06 13:22 | 42.08440 | -70.48253 | 1052 ft | 118 kts | 358° |
| 2026-05-06 13:22 | 42.09261 | -70.48263 | 1037 ft | 119 kts | 357° |
| 2026-05-06 13:23 | 42.10091 | -70.48293 | 983 ft | 120 kts | 353° |
| 2026-05-06 13:23 | 42.10915 | -70.48354 | 956 ft | 118 kts | 353° |
| 2026-05-06 13:23 | 42.11730 | -70.48415 | 945 ft | 115 kts | 353° |
| 2026-05-06 13:23 | 42.12502 | -70.48466 | 1051 ft | 108 kts | 353° |
| 2026-05-06 13:24 | 42.13253 | -70.48516 | 1154 ft | 107 kts | 353° |
| 2026-05-06 13:24 | 42.14001 | -70.48555 | 1231 ft | 110 kts | 353° |
| 2026-05-06 13:24 | 42.14798 | -70.48592 | 1227 ft | 118 kts | 353° |
| 2026-05-06 13:24 | 42.15624 | -70.48646 | 1142 ft | 120 kts | 353° |
| 2026-05-06 13:25 | 42.16466 | -70.48693 | 1026 ft | 119 kts | 353° |
| 2026-05-06 13:25 | 42.17280 | -70.48732 | 1040 ft | 117 kts | 354° |
| 2026-05-06 13:25 | 42.18087 | -70.48768 | 1063 ft | 115 kts | 354° |
| 2026-05-06 13:25 | 42.18886 | -70.48796 | 1069 ft | 115 kts | 354° |
| 2026-05-06 13:26 | 42.19680 | -70.48781 | 1112 ft | 112 kts | 2° |
| 2026-05-06 13:26 | 42.20438 | -70.48620 | 1224 ft | 110 kts | 6° |
| 2026-05-06 13:26 | 42.21178 | -70.48481 | 1373 ft | 106 kts | 6° |
| 2026-05-06 13:26 | 42.21908 | -70.48344 | 1488 ft | 108 kts | 7° |
| 2026-05-06 13:27 | 42.22684 | -70.48241 | 1509 ft | 115 kts | 2° |
| 2026-05-06 13:27 | 42.23498 | -70.48233 | 1498 ft | 119 kts | 355° |
| 2026-05-06 13:27 | 42.24340 | -70.48265 | 1427 ft | 122 kts | 355° |
| 2026-05-06 13:27 | 42.25192 | -70.48305 | 1506 ft | 127 kts | 355° |
| 2026-05-06 13:28 | 42.26111 | -70.48355 | 1472 ft | 136 kts | 355° |
| 2026-05-06 13:28 | 42.27076 | -70.48410 | 1391 ft | 139 kts | 355° |
| 2026-05-06 13:28 | 42.28031 | -70.48479 | 1345 ft | 137 kts | 355° |
| 2026-05-06 13:28 | 42.28973 | -70.48551 | 1376 ft | 135 kts | 355° |
| 2026-05-06 13:29 | 42.29898 | -70.48625 | 1427 ft | 131 kts | 355° |
| 2026-05-06 13:29 | 42.30813 | -70.48696 | 1433 ft | 134 kts | 355° |
| 2026-05-06 13:29 | 42.31772 | -70.48777 | 1336 ft | 138 kts | 355° |
| 2026-05-06 13:29 | 42.32707 | -70.48857 | 1394 ft | 133 kts | 355° |
| 2026-05-06 13:30 | 42.33626 | -70.48927 | 1452 ft | 134 kts | 355° |
| 2026-05-06 13:30 | 42.34571 | -70.49008 | 1418 ft | 136 kts | 355° |
| 2026-05-06 13:30 | 42.35526 | -70.49089 | 1363 ft | 140 kts | 355° |
| 2026-05-06 13:30 | 42.36504 | -70.49166 | 1290 ft | 139 kts | 355° |
| 2026-05-06 13:31 | 42.37448 | -70.49251 | 1255 ft | 135 kts | 355° |
| 2026-05-06 13:31 | 42.38379 | -70.49331 | 1294 ft | 133 kts | 355° |
| 2026-05-06 13:31 | 42.39298 | -70.49403 | 1340 ft | 134 kts | 355° |
| 2026-05-06 13:31 | 42.40242 | -70.49485 | 1332 ft | 134 kts | 355° |
| 2026-05-06 13:32 | 42.41152 | -70.49559 | 1382 ft | 128 kts | 355° |
| 2026-05-06 13:32 | 42.42021 | -70.49623 | 1262 ft | 120 kts | 355° |
| 2026-05-06 13:32 | 42.42886 | -70.49693 | 1216 ft | 130 kts | 355° |
| 2026-05-06 13:32 | 42.43811 | -70.49775 | 1151 ft | 138 kts | 354° |
| 2026-05-06 13:33 | 42.44798 | -70.49866 | 917 ft | 142 kts | 355° |
| 2026-05-06 13:33 | 42.45695 | -70.49952 | 849 ft | 118 kts | 354° |
| 2026-05-06 13:33 | 42.46490 | -70.50016 | 931 ft | 111 kts | 355° |
| 2026-05-06 13:33 | 42.47281 | -70.50097 | 894 ft | 115 kts | 354° |
| 2026-05-06 13:34 | 42.48076 | -70.50182 | 866 ft | 112 kts | 354° |
| 2026-05-06 13:34 | 42.48826 | -70.50257 | 811 ft | 103 kts | 355° |
| 2026-05-06 13:34 | 42.49498 | -70.50325 | 812 ft | 93 kts | 354° |
| 2026-05-06 13:34 | 42.50132 | -70.50391 | 898 ft | 89 kts | 355° |
| 2026-05-06 13:35 | 42.50755 | -70.50447 | 977 ft | 92 kts | 355° |
| 2026-05-06 13:35 | 42.51395 | -70.50506 | 1038 ft | 91 kts | 355° |
| 2026-05-06 13:35 | 42.52038 | -70.50570 | 1054 ft | 105 kts | 354° |
| 2026-05-06 13:35 | 42.52840 | -70.50649 | 992 ft | 120 kts | 355° |
| 2026-05-06 13:36 | 42.53684 | -70.50734 | 931 ft | 122 kts | 355° |
| 2026-05-06 13:36 | 42.54517 | -70.50810 | 758 ft | 117 kts | 354° |
| 2026-05-06 13:36 | 42.55299 | -70.50887 | 640 ft | 110 kts | 355° |
| 2026-05-06 13:36 | 42.56053 | -70.50968 | 578 ft | 109 kts | 352° |
| 2026-05-06 13:37 | 42.56703 | -70.51350 | 466 ft | 95 kts | 307° |
| 2026-05-06 13:37 | 42.56809 | -70.52087 | 394 ft | 81 kts | 238° |
| 2026-05-06 13:37 | 42.56353 | -70.52329 | 349 ft | 68 kts | 185° |
| 2026-05-06 13:37 | 42.56010 | -70.52078 | 299 ft | 38 kts | 116° |
| 2026-05-06 13:38 | 42.55970 | -70.51954 | 473 ft | 9 kts | 115° |
| 2026-05-06 13:38 | 42.56005 | -70.51953 | 330 ft | 8 kts | 115° |
| 2026-05-06 13:38 | 42.56050 | -70.51929 | 206 ft | 9 kts | 115° |
| 2026-05-06 13:38 | 42.56093 | -70.51880 | 103 ft | 7 kts | 115° |
| 2026-05-06 13:39 | 42.56134 | -70.51846 | 74 ft | 7 kts | 115° |
| 2026-05-06 13:39 | 42.56183 | -70.51846 | 74 ft | 7 kts | 115° |
| 2026-05-06 13:39 | 42.56232 | -70.51846 | 68 ft | 7 kts | 115° |
| 2026-05-06 13:39 | 42.56280 | -70.51846 | 70 ft | 7 kts | 115° |
| 2026-05-06 13:40 | 42.56329 | -70.51846 | 74 ft | 7 kts | 115° |
| 2026-05-06 13:40 | 42.56406 | -70.51825 | 148 ft | 21 kts | 115° |
| 2026-05-06 13:40 | 42.56513 | -70.51786 | 303 ft | 5 kts | 225° |
| 2026-05-06 13:40 | 42.56443 | -70.52023 | 525 ft | 54 kts | 261° |
| 2026-05-06 13:41 | 42.56304 | -70.52833 | 798 ft | 118 kts | 256° |
| 2026-05-06 13:41 | 42.56188 | -70.54079 | 715 ft | 141 kts | 260° |
| 2026-05-06 13:41 | 42.56075 | -70.55432 | 677 ft | 147 kts | 260° |
| 2026-05-06 13:41 | 42.55905 | -70.56820 | 635 ft | 151 kts | 256° |
| 2026-05-06 13:42 | 42.55728 | -70.58237 | 612 ft | 153 kts | 259° |
| 2026-05-06 13:42 | 42.55650 | -70.59683 | 600 ft | 154 kts | 266° |
| 2026-05-06 13:42 | 42.55623 | -70.61138 | 605 ft | 155 kts | 265° |
| 2026-05-06 13:42 | 42.55590 | -70.62604 | 582 ft | 156 kts | 266° |
| 2026-05-06 13:43 | 42.55536 | -70.64084 | 538 ft | 159 kts | 263° |
| 2026-05-06 13:43 | 42.55428 | -70.65538 | 518 ft | 153 kts | 261° |
| 2026-05-06 13:43 | 42.55305 | -70.66993 | 480 ft | 156 kts | 261° |
| 2026-05-06 13:43 | 42.55191 | -70.68443 | 518 ft | 155 kts | 261° |
| 2026-05-06 13:44 | 42.55081 | -70.69894 | 516 ft | 155 kts | 262° |
| 2026-05-06 13:44 | 42.54961 | -70.71353 | 482 ft | 155 kts | 260° |
| 2026-05-06 13:44 | 42.54798 | -70.72802 | 387 ft | 157 kts | 254° |
| 2026-05-06 13:44 | 42.54480 | -70.74162 | 359 ft | 146 kts | 249° |
| 2026-05-06 13:45 | 42.54031 | -70.75374 | 345 ft | 143 kts | 234° |
| 2026-05-06 13:45 | 42.52837 | -70.77470 | 493 ft | 150 kts | 231° |
| 2026-05-06 13:45 | 42.52222 | -70.78552 | 528 ft | 143 kts | 231° |
| 2026-05-06 13:46 | 42.51591 | -70.79641 | 519 ft | 149 kts | 231° |
| 2026-05-06 13:46 | 42.50965 | -70.80763 | 534 ft | 150 kts | 233° |
| 2026-05-06 13:46 | 42.50383 | -70.81908 | 572 ft | 149 kts | 236° |
| 2026-05-06 13:46 | 42.49841 | -70.83124 | 575 ft | 150 kts | 238° |
| 2026-05-06 13:47 | 42.49305 | -70.84331 | 625 ft | 149 kts | 234° |
| 2026-05-06 13:47 | 42.48685 | -70.85474 | 633 ft | 151 kts | 233° |
| 2026-05-06 13:47 | 42.48424 | -70.86841 | 568 ft | 153 kts | 269° |
| 2026-05-06 13:47 | 42.48614 | -70.88189 | 817 ft | 133 kts | 279° |
| 2026-05-06 13:48 | 42.48770 | -70.89454 | 1049 ft | 147 kts | 276° |
| 2026-05-06 13:48 | 42.48913 | -70.90837 | 1054 ft | 148 kts | 275° |
| 2026-05-06 13:48 | 42.49027 | -70.92244 | 1076 ft | 154 kts | 273° |
| 2026-05-06 13:48 | 42.49135 | -70.93710 | 1011 ft | 158 kts | 273° |
| 2026-05-06 13:49 | 42.49232 | -70.95177 | 1005 ft | 155 kts | 272° |
| 2026-05-06 13:49 | 42.49334 | -70.96643 | 982 ft | 157 kts | 274° |
| 2026-05-06 13:49 | 42.49423 | -70.98114 | 987 ft | 156 kts | 271° |
| 2026-05-06 13:49 | 42.49471 | -70.99560 | 997 ft | 154 kts | 269° |
| 2026-05-06 13:50 | 42.48976 | -71.00630 | 973 ft | 135 kts | 210° |
| 2026-05-06 13:50 | 42.48147 | -71.01235 | 1051 ft | 139 kts | 207° |
| 2026-05-06 13:50 | 42.47209 | -71.01590 | 1030 ft | 141 kts | 191° |
| 2026-05-06 13:50 | 42.46235 | -71.01782 | 1043 ft | 144 kts | 188° |
| 2026-05-06 13:51 | 42.45224 | -71.01947 | 961 ft | 149 kts | 188° |
| 2026-05-06 13:51 | 42.44207 | -71.02135 | 897 ft | 145 kts | 184° |
| 2026-05-06 13:51 | 42.43235 | -71.01871 | 774 ft | 144 kts | 187° |
| 2026-05-06 13:51 | 42.42358 | -71.02337 | 858 ft | 136 kts | 202° |
| 2026-05-06 13:52 | 42.41753 | -71.02634 | 852 ft | 141 kts | 200° |
| 2026-05-06 13:52 | 42.40878 | -71.03043 | 832 ft | 122 kts | 199° |
| 2026-05-06 13:52 | 42.40154 | -71.03416 | 826 ft | 97 kts | 202° |
| 2026-05-06 13:52 | 42.39600 | -71.03783 | 870 ft | 84 kts | 207° |
| 2026-05-06 13:53 | 42.39120 | -71.04133 | 913 ft | 77 kts | 206° |
| 2026-05-06 13:53 | 42.38644 | -71.04469 | 912 ft | 76 kts | 206° |
| 2026-05-06 13:53 | 42.38170 | -71.04765 | 917 ft | 69 kts | 202° |
| 2026-05-06 13:53 | 42.37766 | -71.05016 | 922 ft | 60 kts | 201° |
| 2026-05-06 13:54 | 42.37426 | -71.05294 | 896 ft | 62 kts | 203° |
| 2026-05-06 13:54 | 42.37083 | -71.05609 | 843 ft | 53 kts | 203° |
| 2026-05-06 13:54 | 42.36857 | -71.05918 | 759 ft | 38 kts | 224° |
| 2026-05-06 13:54 | 42.36784 | -71.06145 | 690 ft | 20 kts | 223° |
| 2026-05-06 13:55 | 42.36732 | -71.06270 | 634 ft | 12 kts | 226° |
| 2026-05-06 13:55 | 42.36706 | -71.06390 | 565 ft | 13 kts | 225° |
| 2026-05-06 13:55 | 42.36658 | -71.06484 | 475 ft | 13 kts | 225° |
| 2026-05-06 13:55 | 42.36595 | -71.06611 | 414 ft | 20 kts | 223° |
| 2026-05-06 13:56 | 42.36487 | -71.06758 | 360 ft | 20 kts | 227° |
| 2026-05-06 13:56 | 42.36422 | -71.06847 | 307 ft | 5 kts | 225° |
| 2026-05-06 13:56 | 42.36397 | -71.06888 | 218 ft | 5 kts | 210° |
| 2026-05-06 13:56 | 42.36382 | -71.06902 | 185 ft | 1 kts | 206° |
| 2026-05-06 13:57 | 42.36375 | -71.06907 | 133 ft | 2 kts | 205° |
| 2026-05-06 13:57 | 42.36365 | -71.06911 | 94 ft | 0 kts | 205° |
| 2026-05-06 13:58 | 42.36359 | -71.06916 | 121 ft | 5 kts | 288° |
| 2026-05-06 13:58 | 42.36444 | -71.07087 | 223 ft | 38 kts | 16° |
| 2026-05-06 13:59 | 42.36729 | -71.06805 | 341 ft | 85 kts | 89° |
| 2026-05-06 13:59 | 42.36914 | -71.05874 | 470 ft | 116 kts | 89° |
| 2026-05-06 13:59 | 42.36636 | -71.05006 | 491 ft | 102 kts | 158° |
| 2026-05-06 13:59 | 42.35911 | -71.05081 | 769 ft | 101 kts | 190° |
| 2026-05-06 14:00 | 42.35168 | -71.05267 | 1242 ft | 123 kts | 195° |
| 2026-05-06 14:00 | 42.34366 | -71.05711 | 1327 ft | 126 kts | 208° |
| 2026-05-06 14:00 | 42.33622 | -71.06374 | 1352 ft | 126 kts | 213° |
| 2026-05-06 14:00 | 42.32886 | -71.06330 | 1332 ft | 110 kts | 165° |
| 2026-05-06 14:01 | 42.32078 | -71.06092 | 1356 ft | 121 kts | 173° |
| 2026-05-06 14:01 | 42.31300 | -71.05878 | 1584 ft | 114 kts | 172° |
| 2026-05-06 14:01 | 42.30505 | -71.05636 | 1217 ft | 97 kts | 174° |
| 2026-05-06 14:01 | 42.30144 | -71.05532 | 853 ft | 28 kts | 152° |
| 2026-05-06 14:02 | 42.29966 | -71.05390 | 513 ft | 31 kts | 153° |
| 2026-05-06 14:02 | 42.29813 | -71.05282 | 273 ft | 23 kts | 153° |
| 2026-05-06 14:02 | 42.29660 | -71.05171 | 154 ft | 18 kts | 153° |
| 2026-05-06 14:02 | 42.29602 | -71.05110 | 93 ft | 9 kts | 153° |
| 2026-05-06 14:03 | 42.29578 | -71.05091 | 18 ft | 0 kts | 153° |